Time;durP1;ratioP1;P1;durP2;ratioP2;P2;SDS_P1;SDS_P2;PMS_P1;PMS_P2;Temp;Humidity;BMP_temperature;BMP_pressure;BME280_temperature;BME280_humidity;BME280_pressure;Samples;Min_cycle;Max_cycle;Signal;HPM_P1;HPM_P2
2021/03/06 00:00:28;;;;;;;2.13;2.03;;;7.20;95.80;;;;;;4959390;28;20789;-78
2021/03/06 00:02:55;;;;;;;1.98;1.88;;;7.20;96.10;;;;;;4962441;28;20221;-78
2021/03/06 00:05:24;;;;;;;1.67;1.63;;;7.10;96.50;;;;;;4966692;28;20639;-78
2021/03/06 00:07:52;;;;;;;1.90;1.80;;;7.10;96.30;;;;;;4960743;28;20953;-78
2021/03/06 00:10:19;;;;;;;1.80;1.70;;;7.10;96.30;;;;;;4965655;28;20253;-78
2021/03/06 00:12:47;;;;;;;2.20;2.08;;;7.10;96.30;;;;;;4959119;28;20304;-78
2021/03/06 00:15:16;;;;;;;2.13;2.03;;;7.00;96.40;;;;;;4961208;28;20241;-78
2021/03/06 00:17:42;;;;;;;1.90;1.85;;;6.90;96.70;;;;;;4963393;28;20229;-78
2021/03/06 00:20:10;;;;;;;1.70;1.70;;;6.80;96.70;;;;;;4961634;28;20233;-78
2021/03/06 00:22:37;;;;;;;2.08;1.98;;;6.80;97.10;;;;;;4963914;28;20261;-78
2021/03/06 00:25:08;;;;;;;1.70;1.70;;;6.80;96.80;;;;;;4967739;28;20229;-78
2021/03/06 00:27:34;;;;;;;1.92;1.83;;;6.70;96.90;;;;;;4965040;28;20237;-79
2021/03/06 00:30:01;;;;;;;1.85;1.83;;;6.70;96.70;;;;;;4966991;28;20236;-78
2021/03/06 00:32:28;;;;;;;1.55;1.55;;;6.70;96.50;;;;;;4965073;28;20226;-79
2021/03/06 00:34:54;;;;;;;1.65;1.65;;;6.80;96.40;;;;;;4969514;28;20245;-78
2021/03/06 00:37:21;;;;;;;1.65;1.58;;;6.80;96.40;;;;;;4967094;28;20229;-79
2021/03/06 00:39:47;;;;;;;1.50;1.50;;;6.80;96.50;;;;;;4966968;28;20237;-78
2021/03/06 00:42:15;;;;;;;2.03;1.92;;;6.80;96.60;;;;;;4970223;28;20225;-78
2021/03/06 00:44:41;;;;;;;1.80;1.80;;;6.80;96.50;;;;;;4965014;28;20224;-77
2021/03/06 00:47:08;;;;;;;1.42;1.42;;;6.80;96.40;;;;;;4968253;28;20230;-78
2021/03/06 00:49:35;;;;;;;1.70;1.70;;;6.80;96.50;;;;;;4967828;28;20226;-78
2021/03/06 00:52:02;;;;;;;1.63;1.60;;;6.70;96.50;;;;;;4966842;28;20312;-78
2021/03/06 00:54:28;;;;;;;2.03;1.92;;;6.70;96.70;;;;;;4968698;28;20265;-78
2021/03/06 00:56:55;;;;;;;2.10;2.00;;;6.60;96.90;;;;;;4966229;28;20229;-78
2021/03/06 00:59:22;;;;;;;2.00;1.90;;;6.50;97.00;;;;;;4963009;28;20230;-78
2021/03/06 01:01:49;;;;;;;1.73;1.63;;;6.40;97.00;;;;;;4961966;28;20222;-79
2021/03/06 01:04:16;;;;;;;2.20;2.10;;;6.40;96.90;;;;;;4970380;28;20230;-77
2021/03/06 01:06:42;;;;;;;1.90;1.90;;;6.40;97.00;;;;;;4968799;28;20221;-78
2021/03/06 01:09:09;;;;;;;2.00;1.90;;;6.40;96.90;;;;;;4965599;28;20225;-78
2021/03/06 01:11:35;;;;;;;1.95;1.85;;;6.40;96.90;;;;;;4969574;28;20272;-78
2021/03/06 01:14:03;;;;;;;1.70;1.70;;;6.40;97.10;;;;;;4965750;28;20229;-78
2021/03/06 01:16:31;;;;;;;1.67;1.67;;;6.30;97.10;;;;;;4967068;28;20241;-79
2021/03/06 01:18:57;;;;;;;2.05;1.95;;;6.30;97.10;;;;;;4967343;28;20237;-78
2021/03/06 01:21:24;;;;;;;1.90;1.90;;;6.30;97.00;;;;;;4969111;28;20763;-78
2021/03/06 01:23:51;;;;;;;1.75;1.75;;;6.30;96.90;;;;;;4968166;28;20224;-78
2021/03/06 01:26:17;;;;;;;1.90;1.90;;;6.30;96.90;;;;;;4962829;28;20249;-79
2021/03/06 01:28:44;;;;;;;1.83;1.83;;;6.30;96.80;;;;;;4967321;28;20233;-78
2021/03/06 01:31:10;;;;;;;1.83;1.83;;;6.40;96.80;;;;;;4968651;28;20284;-78
2021/03/06 01:33:38;;;;;;;1.58;1.58;;;6.40;96.90;;;;;;4964555;28;20257;-79
2021/03/06 01:36:05;;;;;;;1.58;1.58;;;6.40;96.70;;;;;;4968675;28;20588;-78
2021/03/06 01:38:32;;;;;;;1.75;1.75;;;6.40;96.60;;;;;;4966381;28;20233;-78
2021/03/06 01:40:58;;;;;;;1.63;1.63;;;6.40;96.50;;;;;;4958935;28;20294;-78
2021/03/06 01:43:25;;;;;;;2.05;1.95;;;6.40;96.50;;;;;;4969392;28;20233;-78
2021/03/06 01:45:51;;;;;;;1.98;1.88;;;6.40;96.40;;;;;;4960625;28;20236;-78
2021/03/06 01:48:18;;;;;;;1.80;1.70;;;6.40;96.30;;;;;;4967266;28;20224;-78
2021/03/06 01:50:46;;;;;;;1.75;1.73;;;6.30;96.30;;;;;;4968205;28;20225;-78
2021/03/06 01:53:14;;;;;;;1.88;1.88;;;6.30;96.40;;;;;;4968672;28;20309;-77
2021/03/06 01:55:43;;;;;;;1.85;1.80;;;6.30;96.40;;;;;;4967888;28;20240;-78
2021/03/06 01:58:10;;;;;;;1.60;1.60;;;6.30;96.40;;;;;;4955816;28;20229;-77
2021/03/06 02:00:37;;;;;;;1.92;1.83;;;6.20;96.50;;;;;;4968698;28;20591;-78
2021/03/06 02:03:05;;;;;;;1.70;1.70;;;6.10;96.50;;;;;;4966590;28;20251;-78
2021/03/06 02:05:31;;;;;;;1.85;1.75;;;6.00;96.50;;;;;;4968435;28;20229;-77
2021/03/06 02:07:59;;;;;;;1.85;1.75;;;6.00;96.60;;;;;;4961151;28;20836;-78
2021/03/06 02:10:29;;;;;;;1.58;1.58;;;5.90;96.80;;;;;;4963350;28;20229;-79
2021/03/06 02:13:06;;;;;;;1.70;1.70;;;5.90;96.70;;;;;;4966942;28;20245;-77
2021/03/06 02:15:56;;;;;;;2.20;2.10;;;5.80;96.70;;;;;;4966267;28;20221;-78
2021/03/06 02:18:26;;;;;;;2.20;2.10;;;5.90;96.20;;;;;;4966084;28;20253;-78
2021/03/06 02:21:03;;;;;;;2.03;1.92;;;5.90;96.30;;;;;;4967560;28;20598;-79
2021/03/06 02:24:14;;;;;;;1.88;1.88;;;5.90;96.30;;;;;;4965082;28;20615;-78
2021/03/06 02:27:09;;;;;;;2.22;2.13;;;5.90;96.30;;;;;;4969149;28;20221;-77
2021/03/06 02:29:52;;;;;;;1.73;1.67;;;5.90;96.40;;;;;;4964488;28;20246;-78
2021/03/06 02:32:22;;;;;;;2.25;2.15;;;5.80;96.60;;;;;;4965395;28;20678;-78
2021/03/06 02:34:55;;;;;;;2.03;1.92;;;5.80;96.70;;;;;;4964562;28;20260;-78
2021/03/06 02:37:25;;;;;;;1.83;1.73;;;5.80;96.40;;;;;;4966720;28;20233;-79
2021/03/06 02:39:55;;;;;;;1.98;1.95;;;5.80;96.40;;;;;;4963999;28;20221;-78
2021/03/06 02:42:25;;;;;;;1.77;1.77;;;5.80;96.40;;;;;;4967749;28;20233;-78
2021/03/06 02:44:55;;;;;;;2.20;2.10;;;5.80;96.60;;;;;;4966076;28;20221;-78
2021/03/06 02:47:22;;;;;;;2.20;2.10;;;5.80;96.40;;;;;;4965504;28;20615;-78
2021/03/06 02:49:53;;;;;;;2.20;2.10;;;5.70;96.60;;;;;;4967974;28;20237;-78
2021/03/06 02:52:20;;;;;;;1.70;1.70;;;5.80;96.40;;;;;;4967665;28;20233;-78
2021/03/06 02:54:48;;;;;;;1.50;1.50;;;5.80;96.40;;;;;;4965918;28;20233;-78
2021/03/06 02:57:24;;;;;;;1.90;1.90;;;5.80;96.60;;;;;;4963742;28;20222;-78
2021/03/06 03:00:05;;;;;;;2.00;1.90;;;5.80;96.80;;;;;;4962374;28;20257;-78
2021/03/06 03:02:46;;;;;;;2.13;2.03;;;5.70;96.60;;;;;;4964910;28;20217;-78
2021/03/06 03:05:24;;;;;;;2.30;2.20;;;5.70;96.30;;;;;;4963293;28;20256;-78
2021/03/06 03:08:01;;;;;;;2.28;2.13;;;5.70;96.50;;;;;;4964992;28;20221;-79
2021/03/06 03:10:31;;;;;;;2.20;2.10;;;5.70;96.50;;;;;;4965904;28;20287;-78
2021/03/06 03:13:10;;;;;;;2.20;2.10;;;5.70;96.60;;;;;;4965911;28;20230;-78
2021/03/06 03:15:45;;;;;;;1.75;1.75;;;5.80;96.60;;;;;;4966127;28;20240;-78
2021/03/06 03:18:19;;;;;;;2.25;2.15;;;5.80;96.60;;;;;;4961907;28;20233;-78
2021/03/06 03:20:50;;;;;;;1.70;1.70;;;5.80;96.60;;;;;;4966614;28;20229;-78
2021/03/06 03:23:19;;;;;;;1.90;1.90;;;5.80;96.80;;;;;;4965567;28;20232;-78
2021/03/06 03:25:48;;;;;;;2.10;2.00;;;5.80;96.60;;;;;;4970661;28;20791;-77
2021/03/06 03:28:16;;;;;;;2.10;2.00;;;5.80;96.50;;;;;;4965090;28;20225;-78
2021/03/06 03:30:44;;;;;;;1.88;1.85;;;5.80;96.60;;;;;;4963822;28;20241;-78
2021/03/06 03:33:13;;;;;;;2.25;2.15;;;5.80;96.50;;;;;;4966254;28;20759;-77
2021/03/06 03:35:42;;;;;;;2.08;1.98;;;5.80;96.50;;;;;;4965621;28;20221;-78
2021/03/06 03:38:09;;;;;;;2.15;2.05;;;5.70;96.50;;;;;;4966352;28;20581;-77
2021/03/06 03:40:37;;;;;;;1.98;1.88;;;5.70;96.40;;;;;;4962791;28;20226;-78
2021/03/06 03:43:04;;;;;;;1.77;1.77;;;5.70;96.40;;;;;;4963692;28;20229;-79
2021/03/06 03:45:32;;;;;;;2.42;2.33;;;5.70;96.40;;;;;;4966588;28;20229;-78
2021/03/06 03:48:00;;;;;;;2.10;2.00;;;5.70;96.60;;;;;;4964303;28;20225;-77
2021/03/06 03:50:27;;;;;;;2.00;1.90;;;5.70;96.70;;;;;;4966883;28;20722;-79
2021/03/06 03:52:57;;;;;;;2.55;2.45;;;5.70;96.20;;;;;;4963218;28;20235;-78
2021/03/06 03:55:25;;;;;;;2.20;2.10;;;5.70;96.40;;;;;;4967594;28;20217;-78
2021/03/06 03:57:51;;;;;;;2.13;2.03;;;5.80;96.00;;;;;;4963794;28;20241;-79
2021/03/06 04:00:20;;;;;;;2.05;1.95;;;5.80;95.90;;;;;;4964769;28;20225;-79
2021/03/06 04:02:47;;;;;;;2.15;2.05;;;5.80;95.70;;;;;;4963567;28;20230;-78
2021/03/06 04:05:15;;;;;;;2.28;2.17;;;5.80;95.60;;;;;;4965818;28;20934;-78
2021/03/06 04:07:43;;;;;;;1.70;1.70;;;5.80;95.70;;;;;;4963501;28;20217;-78
2021/03/06 04:10:12;;;;;;;1.90;1.80;;;5.80;95.80;;;;;;4967597;28;20300;-78
2021/03/06 04:12:39;;;;;;;2.10;2.00;;;5.80;95.80;;;;;;4965098;28;20232;-78
2021/03/06 04:15:07;;;;;;;2.17;2.08;;;5.80;95.70;;;;;;4963447;28;20587;-78
2021/03/06 04:17:34;;;;;;;2.28;2.17;;;5.80;95.70;;;;;;4965963;28;20225;-78
2021/03/06 04:20:01;;;;;;;2.22;2.13;;;5.80;95.60;;;;;;4964119;28;20300;-78
2021/03/06 04:22:28;;;;;;;2.38;2.20;;;5.70;95.80;;;;;;4965955;28;20233;-78
2021/03/06 04:24:55;;;;;;;2.17;2.08;;;5.70;96.00;;;;;;4963223;28;20723;-78
2021/03/06 04:27:22;;;;;;;2.15;2.05;;;5.70;95.60;;;;;;4966720;28;20221;-78
2021/03/06 04:29:49;;;;;;;2.42;2.33;;;5.60;96.00;;;;;;4960175;28;20228;-78
2021/03/06 04:32:16;;;;;;;2.10;2.00;;;5.60;95.70;;;;;;4964402;28;20642;-79
2021/03/06 04:34:42;;;;;;;2.13;2.03;;;5.50;96.00;;;;;;4965877;28;20217;-77
2021/03/06 04:37:09;;;;;;;2.15;2.05;;;5.50;96.20;;;;;;4964454;28;20237;-78
2021/03/06 04:39:37;;;;;;;2.08;1.98;;;5.40;96.10;;;;;;4964402;28;20618;-79
2021/03/06 04:42:03;;;;;;;2.40;2.30;;;5.50;96.10;;;;;;4963654;28;20226;-78
2021/03/06 04:44:30;;;;;;;2.10;2.00;;;5.40;96.10;;;;;;4958769;28;20293;-77
2021/03/06 04:46:57;;;;;;;2.30;2.20;;;5.40;96.30;;;;;;4965316;28;20217;-79
2021/03/06 04:49:23;;;;;;;2.30;2.20;;;5.40;96.10;;;;;;4961446;28;20300;-78
2021/03/06 04:51:50;;;;;;;2.47;2.38;;;5.40;96.20;;;;;;4965803;28;20285;-78
2021/03/06 04:54:17;;;;;;;2.80;2.63;;;5.50;96.30;;;;;;4965465;28;20225;-79
2021/03/06 04:56:44;;;;;;;2.60;2.50;;;5.40;96.30;;;;;;4963479;28;20233;-78
2021/03/06 04:59:11;;;;;;;3.00;2.80;;;5.40;96.00;;;;;;4966014;28;20283;-78
2021/03/06 05:01:38;;;;;;;2.85;2.67;;;5.40;96.00;;;;;;4968998;28;20225;-78
2021/03/06 05:04:04;;;;;;;4.03;3.63;;;5.40;96.10;;;;;;4966135;28;20237;-78
2021/03/06 05:06:31;;;;;;;5.05;3.78;;;5.30;96.10;;;;;;4962172;28;20226;-78
2021/03/06 05:08:58;;;;;;;4.03;3.42;;;5.30;96.10;;;;;;4965119;28;20222;-78
2021/03/06 05:11:24;;;;;;;4.00;3.35;;;5.20;96.10;;;;;;4964927;28;20230;-78
2021/03/06 05:13:52;;;;;;;3.83;2.90;;;5.20;96.30;;;;;;4968648;28;20221;-79
2021/03/06 05:16:18;;;;;;;5.28;3.63;;;5.10;96.50;;;;;;4967250;28;20225;-78
2021/03/06 05:18:45;;;;;;;3.72;3.08;;;5.10;96.60;;;;;;4963321;28;20217;-78
2021/03/06 05:21:12;;;;;;;3.05;2.83;;;5.10;96.90;;;;;;4966639;28;20244;-78
2021/03/06 05:23:39;;;;;;;3.03;2.83;;;5.10;97.00;;;;;;4970742;28;20240;-78
2021/03/06 05:26:05;;;;;;;2.92;2.72;;;5.00;97.00;;;;;;4968946;28;20237;-79
2021/03/06 05:28:32;;;;;;;2.58;2.47;;;5.00;97.20;;;;;;4966016;28;20236;-78
2021/03/06 05:30:59;;;;;;;3.08;2.88;;;5.00;97.30;;;;;;4966801;28;20245;-79
2021/03/06 05:33:26;;;;;;;2.55;2.45;;;4.90;97.10;;;;;;4968450;28;20587;-79
2021/03/06 05:35:53;;;;;;;2.28;2.17;;;4.90;97.10;;;;;;4969635;28;20963;-78
2021/03/06 05:38:19;;;;;;;2.45;2.35;;;4.80;97.20;;;;;;4968354;28;20238;-78
2021/03/06 05:40:47;;;;;;;2.90;2.70;;;4.80;97.10;;;;;;4966379;28;20228;-78
2021/03/06 05:43:15;;;;;;;2.40;2.30;;;4.80;97.10;;;;;;4970239;28;20225;-78
2021/03/06 05:45:45;;;;;;;2.72;2.53;;;4.90;96.60;;;;;;4970707;28;20226;-77
2021/03/06 05:48:13;;;;;;;2.50;2.40;;;4.90;96.70;;;;;;4963797;28;20311;-78
2021/03/06 05:50:40;;;;;;;2.40;2.30;;;4.80;96.80;;;;;;4968951;28;20252;-79
2021/03/06 05:53:11;;;;;;;2.20;2.10;;;4.80;96.90;;;;;;4967679;28;20730;-78
2021/03/06 05:55:40;;;;;;;2.50;2.40;;;4.80;97.10;;;;;;4965325;28;20225;-79
2021/03/06 05:58:10;;;;;;;2.60;2.50;;;4.80;97.20;;;;;;4965106;28;20717;-79
2021/03/06 06:00:39;;;;;;;2.25;2.15;;;4.80;97.30;;;;;;4964291;28;20291;-78
2021/03/06 06:03:07;;;;;;;2.60;2.50;;;4.80;97.20;;;;;;4965794;28;20590;-78
2021/03/06 06:05:34;;;;;;;2.38;2.28;;;4.80;97.50;;;;;;4967125;28;20233;-79
2021/03/06 06:08:03;;;;;;;2.53;2.42;;;4.80;97.50;;;;;;4971813;28;20226;-79
2021/03/06 06:10:31;;;;;;;2.10;2.00;;;4.80;97.50;;;;;;4969254;28;20242;-78
2021/03/06 06:12:58;;;;;;;2.35;2.20;;;4.80;97.60;;;;;;4968096;28;20222;-78
2021/03/06 06:15:25;;;;;;;2.60;2.50;;;4.70;97.70;;;;;;4967465;28;20229;-79
2021/03/06 06:17:52;;;;;;;2.38;2.28;;;4.70;98.00;;;;;;4966851;28;20225;-79
2021/03/06 06:20:18;;;;;;;2.72;2.63;;;4.70;98.10;;;;;;4964961;28;20703;-78
2021/03/06 06:22:46;;;;;;;2.67;2.58;;;4.70;98.00;;;;;;4963010;28;20579;-78
2021/03/06 06:25:30;;;;;;;2.33;2.22;;;4.70;98.00;;;;;;4960355;28;20241;-78
2021/03/06 06:28:00;;;;;;;2.53;2.42;;;4.70;98.00;;;;;;4969127;28;20852;-79
2021/03/06 06:30:27;;;;;;;2.70;2.60;;;4.70;97.90;;;;;;4964993;28;20272;-79
2021/03/06 06:32:54;;;;;;;2.70;2.50;;;4.70;97.90;;;;;;4965571;28;20632;-79
2021/03/06 06:35:21;;;;;;;2.45;2.35;;;4.70;97.90;;;;;;4965696;28;20241;-80
2021/03/06 06:37:59;;;;;;;2.70;2.60;;;4.70;97.80;;;;;;4962399;28;20647;-78
2021/03/06 06:40:27;;;;;;;2.45;2.35;;;4.80;97.80;;;;;;4959738;28;20225;-78
2021/03/06 06:42:54;;;;;;;2.67;2.58;;;4.80;97.80;;;;;;4965908;28;20956;-79
2021/03/06 06:45:22;;;;;;;2.70;2.60;;;4.80;97.70;;;;;;4964255;28;20218;-78
2021/03/06 06:47:50;;;;;;;2.63;2.35;;;4.90;97.60;;;;;;4961883;28;20229;-78
2021/03/06 06:50:29;;;;;;;2.90;2.80;;;4.90;97.60;;;;;;4962837;28;20251;-78
2021/03/06 06:52:57;;;;;;;2.65;2.55;;;4.90;97.30;;;;;;4964874;28;20700;-78
2021/03/06 06:55:34;;;;;;;3.17;2.97;;;4.90;97.10;;;;;;4964855;28;20221;-79
2021/03/06 06:58:01;;;;;;;3.15;3.03;;;5.20;97.00;;;;;;4962678;28;20295;-80
2021/03/06 07:00:30;;;;;;;2.60;2.50;;;6.00;96.60;;;;;;4956416;28;20551;-78
2021/03/06 07:02:58;;;;;;;3.85;3.10;;;6.60;95.80;;;;;;4970211;28;20620;-78
2021/03/06 07:05:29;;;;;;;2.75;2.65;;;7.20;95.00;;;;;;4965159;28;20893;-79
2021/03/06 07:07:57;;;;;;;2.63;2.53;;;7.70;94.50;;;;;;4966185;28;20222;-79
2021/03/06 07:10:24;;;;;;;2.80;2.70;;;8.20;93.80;;;;;;4972142;28;20221;-78
2021/03/06 07:12:58;;;;;;;2.30;2.20;;;8.70;93.80;;;;;;4970072;28;20230;-78
2021/03/06 07:15:27;;;;;;;2.53;2.38;;;9.30;93.10;;;;;;4967663;28;20224;-78
2021/03/06 07:17:55;;;;;;;2.47;2.33;;;9.60;93.10;;;;;;4962252;28;20234;-79
2021/03/06 07:20:36;;;;;;;2.45;2.35;;;10.00;92.70;;;;;;4964889;28;20250;-79
2021/03/06 07:23:16;;;;;;;2.10;2.00;;;10.40;92.00;;;;;;4966248;28;20229;-78
2021/03/06 07:25:43;;;;;;;2.35;2.20;;;10.50;91.30;;;;;;4967622;28;20236;-78
2021/03/06 07:28:10;;;;;;;2.30;2.20;;;10.50;91.40;;;;;;4966679;28;20225;-78
2021/03/06 07:30:37;;;;;;;2.25;2.15;;;10.60;91.40;;;;;;4965053;28;20229;-79
2021/03/06 07:33:06;;;;;;;2.38;2.25;;;10.70;91.70;;;;;;4967809;28;20221;-79
2021/03/06 07:35:37;;;;;;;2.53;2.42;;;11.10;91.30;;;;;;4961466;28;20229;-78
2021/03/06 07:38:06;;;;;;;2.22;2.13;;;11.40;90.50;;;;;;4966612;28;20506;-78
2021/03/06 07:40:37;;;;;;;2.08;1.98;;;11.50;90.70;;;;;;4965306;28;20254;-79
2021/03/06 07:43:10;;;;;;;2.83;2.63;;;12.00;90.40;;;;;;4966893;28;20225;-78
2021/03/06 07:45:41;;;;;;;2.05;1.95;;;12.30;89.50;;;;;;4967094;28;20225;-78
2021/03/06 07:48:09;;;;;;;2.45;2.25;;;12.50;90.00;;;;;;4970694;28;20229;-80
2021/03/06 07:50:39;;;;;;;2.38;2.17;;;12.70;89.90;;;;;;4968516;28;20221;-79
2021/03/06 07:53:07;;;;;;;2.50;2.30;;;12.90;88.10;;;;;;4969391;28;20229;-79
2021/03/06 07:55:36;;;;;;;2.15;2.03;;;12.40;88.20;;;;;;4970754;28;20569;-81
2021/03/06 07:58:07;;;;;;;2.53;2.17;;;11.70;89.20;;;;;;4965652;28;20719;-79
2021/03/06 08:00:42;;;;;;;4.38;2.20;;;11.20;90.00;;;;;;4974109;28;20229;-80
2021/03/06 08:03:37;;;;;;;2.55;2.17;;;11.60;90.00;;;;;;4986432;28;20241;-80
2021/03/06 08:06:06;;;;;;;2.40;2.20;;;11.90;89.50;;;;;;4983751;28;20225;-81
2021/03/06 08:09:08;;;;;;;3.03;2.45;;;12.20;89.00;;;;;;4976421;28;20205;-81
2021/03/06 08:11:42;;;;;;;2.65;1.88;;;12.30;87.00;;;;;;4980345;28;20898;-81
2021/03/06 08:17:36;;;;;;;4.13;1.80;;;12.60;86.70;;;;;;4891040;28;20253;-82
2021/03/06 08:20:07;;;;;;;3.83;2.00;;;12.70;86.50;;;;;;4988242;28;20209;-83
2021/03/06 08:22:33;;;;;;;2.20;2.00;;;12.90;86.30;;;;;;4966402;28;20287;-80
2021/03/06 08:25:19;;;;;;;3.20;2.00;;;12.90;85.40;;;;;;4979335;28;20257;-79
2021/03/06 08:28:23;;;;;;;2.13;2.03;;;13.20;85.70;;;;;;4970368;28;20238;-79
2021/03/06 08:30:49;;;;;;;2.03;1.92;;;13.20;84.90;;;;;;4978406;28;20220;-80
2021/03/06 08:33:19;;;;;;;2.38;2.17;;;13.20;85.40;;;;;;4976272;28;20272;-79
2021/03/06 08:35:46;;;;;;;2.63;1.83;;;13.20;85.00;;;;;;4974152;28;20233;-81
2021/03/06 08:38:30;;;;;;;2.00;1.90;;;13.20;85.10;;;;;;4978901;28;20232;-80
2021/03/06 08:40:59;;;;;;;2.13;1.92;;;13.40;85.20;;;;;;4969402;28;20275;-81
2021/03/06 08:43:27;;;;;;;1.85;1.75;;;13.60;85.30;;;;;;4980400;28;20252;-81
2021/03/06 08:45:54;;;;;;;2.00;1.90;;;13.70;83.70;;;;;;4979604;28;20225;-79
2021/03/06 08:48:24;;;;;;;1.80;1.60;;;13.70;83.20;;;;;;4978461;28;20238;-79
2021/03/06 08:50:51;;;;;;;1.90;1.80;;;13.80;83.60;;;;;;4971174;28;20243;-79
2021/03/06 08:53:17;;;;;;;1.92;1.83;;;13.70;82.60;;;;;;4969949;28;20230;-79
2021/03/06 08:55:45;;;;;;;1.77;1.65;;;13.80;82.90;;;;;;4967922;28;20237;-79
2021/03/06 08:58:13;;;;;;;5.35;2.10;;;13.80;83.40;;;;;;4970639;28;20241;-78
2021/03/06 09:00:43;;;;;;;2.40;1.63;;;14.00;83.00;;;;;;4977248;28;20381;-79
2021/03/06 09:03:15;;;;;;;1.85;1.70;;;14.40;82.10;;;;;;4972219;28;20230;-78
2021/03/06 09:05:42;;;;;;;1.67;1.58;;;14.70;81.80;;;;;;4966704;28;20680;-78
2021/03/06 09:08:09;;;;;;;1.92;1.83;;;14.80;80.90;;;;;;4967306;28;20240;-79
2021/03/06 09:10:39;;;;;;;1.85;1.75;;;14.90;80.40;;;;;;4982133;28;20333;-79
2021/03/06 09:13:11;;;;;;;1.50;1.40;;;14.90;79.60;;;;;;4985140;28;20217;-80
2021/03/06 09:15:42;;;;;;;1.55;1.45;;;14.80;79.50;;;;;;4977719;28;20228;-79
2021/03/06 09:18:10;;;;;;;1.52;1.42;;;14.80;78.10;;;;;;4973018;28;20225;-79
2021/03/06 09:20:41;;;;;;;1.85;1.75;;;14.60;76.60;;;;;;4973193;28;20227;-80
2021/03/06 09:23:08;;;;;;;1.80;1.70;;;14.50;76.80;;;;;;4971410;28;20242;-81
2021/03/06 09:25:38;;;;;;;1.80;1.70;;;14.50;78.20;;;;;;4975140;28;20222;-80
2021/03/06 09:28:05;;;;;;;2.05;1.95;;;14.60;78.10;;;;;;4970569;28;20241;-79
2021/03/06 09:30:36;;;;;;;1.40;1.30;;;15.10;78.20;;;;;;4970900;28;20229;-78
2021/03/06 09:33:05;;;;;;;1.80;1.70;;;15.40;78.50;;;;;;4968221;28;20233;-78
2021/03/06 09:35:31;;;;;;;1.40;1.35;;;15.40;74.80;;;;;;4965753;28;20252;-79
2021/03/06 09:38:07;;;;;;;2.38;2.00;;;15.10;74.50;;;;;;4959151;28;20312;-78
2021/03/06 09:40:43;;;;;;;1.45;1.35;;;15.30;75.90;;;;;;4965701;28;20229;-79
2021/03/06 09:43:13;;;;;;;1.88;1.63;;;15.40;74.90;;;;;;4965099;28;20267;-80
2021/03/06 09:45:39;;;;;;;1.60;1.50;;;15.50;75.70;;;;;;4967364;28;20795;-78
2021/03/06 09:48:14;;;;;;;2.80;1.52;;;15.40;75.10;;;;;;4966254;28;20684;-79
2021/03/06 09:50:41;;;;;;;1.73;1.58;;;15.20;74.40;;;;;;4961468;28;20233;-79
2021/03/06 09:53:17;;;;;;;1.75;1.65;;;15.20;74.70;;;;;;4963276;28;20221;-79
2021/03/06 09:55:45;;;;;;;1.73;1.63;;;15.40;76.00;;;;;;4965308;28;20221;-78
2021/03/06 09:58:23;;;;;;;2.05;1.60;;;15.50;74.60;;;;;;4950592;28;20344;-78
2021/03/06 10:00:51;;;;;;;1.70;1.60;;;15.40;72.90;;;;;;4962833;28;20221;-77
2021/03/06 10:03:36;;;;;;;1.60;1.50;;;15.30;75.40;;;;;;4961004;28;20564;-77
2021/03/06 10:06:06;;;;;;;1.60;1.50;;;15.20;73.30;;;;;;4962110;28;20236;-77
2021/03/06 10:08:37;;;;;;;1.95;1.65;;;15.20;75.50;;;;;;4964425;28;20220;-76
2021/03/06 10:11:04;;;;;;;2.17;1.70;;;15.00;75.40;;;;;;4966267;28;20236;-77
2021/03/06 10:13:31;;;;;;;3.28;1.70;;;15.10;75.60;;;;;;4969113;28;20253;-78
2021/03/06 10:15:59;;;;;;;1.75;1.65;;;15.30;74.70;;;;;;4960446;28;20221;-77
2021/03/06 10:18:27;;;;;;;2.08;1.40;;;15.30;73.40;;;;;;4957422;28;20229;-77
2021/03/06 10:20:55;;;;;;;1.60;1.50;;;15.30;75.70;;;;;;4955954;28;20743;-77
2021/03/06 10:23:34;;;;;;;1.55;1.48;;;15.60;75.30;;;;;;4959473;28;20226;-77
2021/03/06 10:26:26;;;;;;;1.52;1.50;;;15.90;73.50;;;;;;4959885;28;20240;-77
2021/03/06 10:28:55;;;;;;;1.73;1.60;;;15.40;73.00;;;;;;4946830;28;20225;-77
2021/03/06 10:31:33;;;;;;;1.25;1.25;;;15.50;74.60;;;;;;4957638;28;20244;-78
2021/03/06 10:34:18;;;;;;;1.48;1.38;;;15.50;76.10;;;;;;4956782;28;21490;-78
2021/03/06 10:37:01;;;;;;;1.60;1.50;;;16.00;74.60;;;;;;4957927;28;20251;-78
2021/03/06 10:39:28;;;;;;;1.70;1.60;;;15.60;73.20;;;;;;4960069;28;20218;-78
2021/03/06 10:41:57;;;;;;;1.48;1.33;;;15.20;73.20;;;;;;4957807;28;20229;-76
2021/03/06 10:44:24;;;;;;;1.40;1.40;;;15.10;73.00;;;;;;4956650;28;20225;-76
2021/03/06 10:46:58;;;;;;;1.70;1.60;;;15.50;74.40;;;;;;4958463;28;20229;-76
2021/03/06 10:49:35;;;;;;;1.40;1.30;;;15.60;74.00;;;;;;4956124;28;20252;-76
2021/03/06 10:52:05;;;;;;;1.65;1.55;;;16.10;74.50;;;;;;4969970;28;20233;-78
2021/03/06 10:54:47;;;;;;;1.90;1.65;;;16.30;73.10;;;;;;4968589;28;20232;-75
2021/03/06 10:57:13;;;;;;;1.40;1.30;;;16.40;71.30;;;;;;4962475;28;20252;-76
2021/03/06 10:59:40;;;;;;;1.45;1.40;;;16.10;72.30;;;;;;4964964;28;20228;-76
2021/03/06 11:02:07;;;;;;;1.20;1.20;;;16.00;74.00;;;;;;4965000;28;20553;-76
2021/03/06 11:04:35;;;;;;;1.70;1.60;;;16.30;73.10;;;;;;4960123;28;20225;-76
2021/03/06 11:07:05;;;;;;;1.50;1.40;;;15.90;70.40;;;;;;4959305;28;20229;-75
2021/03/06 11:09:33;;;;;;;1.73;1.63;;;15.50;72.30;;;;;;4960974;28;20240;-75
2021/03/06 11:12:15;;;;;;;1.60;1.50;;;15.30;74.20;;;;;;4953533;28;20648;-76
2021/03/06 11:14:42;;;;;;;1.65;1.55;;;15.50;72.70;;;;;;4954658;28;20231;-76
2021/03/06 11:17:08;;;;;;;1.60;1.50;;;15.70;75.30;;;;;;4952200;28;20222;-76
2021/03/06 11:19:35;;;;;;;1.70;1.60;;;16.10;73.40;;;;;;4957491;28;20232;-77
2021/03/06 11:22:02;;;;;;;1.85;1.75;;;16.00;71.20;;;;;;4955429;28;20264;-76
2021/03/06 11:24:29;;;;;;;3.33;1.35;;;16.10;72.50;;;;;;4952390;28;20225;-76
2021/03/06 11:26:58;;;;;;;2.03;1.90;;;15.60;72.80;;;;;;4954575;28;20229;-76
2021/03/06 11:29:24;;;;;;;2.00;1.80;;;15.60;72.80;;;;;;4951616;28;20261;-76
2021/03/06 11:31:51;;;;;;;1.60;1.50;;;15.70;74.80;;;;;;4950879;28;20240;-75
2021/03/06 11:34:18;;;;;;;1.70;1.60;;;15.80;74.40;;;;;;4955541;28;20281;-75
2021/03/06 11:36:44;;;;;;;1.80;1.70;;;15.70;73.90;;;;;;4952744;28;20225;-76
2021/03/06 11:39:12;;;;;;;3.55;1.67;;;15.40;73.10;;;;;;4955029;28;20241;-76
2021/03/06 11:41:40;;;;;;;2.55;1.50;;;15.60;74.80;;;;;;4953386;28;20224;-75
2021/03/06 11:44:07;;;;;;;1.77;1.67;;;15.80;74.80;;;;;;4951482;28;20217;-76
2021/03/06 11:46:34;;;;;;;2.78;1.50;;;16.00;74.40;;;;;;4952476;28;20240;-76
2021/03/06 11:49:01;;;;;;;1.95;1.85;;;16.00;75.70;;;;;;4945951;28;20230;-75
2021/03/06 11:51:28;;;;;;;2.47;1.70;;;15.80;76.70;;;;;;4944373;28;20599;-75
2021/03/06 11:53:54;;;;;;;1.92;1.83;;;15.60;77.70;;;;;;4950370;28;20233;-77
2021/03/06 11:56:22;;;;;;;1.92;1.83;;;15.40;78.10;;;;;;4950748;28;20229;-76
2021/03/06 11:58:48;;;;;;;2.30;2.10;;;15.70;80.80;;;;;;4948373;28;20230;-76
2021/03/06 12:01:15;;;;;;;2.10;1.90;;;16.10;80.10;;;;;;4950313;28;20480;-77
2021/03/06 12:03:42;;;;;;;3.17;2.70;;;16.40;80.40;;;;;;4948986;28;20225;-76
2021/03/06 12:06:09;;;;;;;5.82;2.58;;;15.90;80.70;;;;;;4955866;28;20638;-76
2021/03/06 12:08:35;;;;;;;2.75;2.55;;;16.20;82.70;;;;;;4951850;28;20225;-78
2021/03/06 12:11:02;;;;;;;2.97;2.70;;;16.30;82.70;;;;;;4953998;28;20229;-76
2021/03/06 12:13:31;;;;;;;2.90;2.70;;;16.00;84.50;;;;;;4959019;28;20241;-75
2021/03/06 12:15:58;;;;;;;3.78;2.85;;;15.50;84.30;;;;;;4949733;28;20229;-76
2021/03/06 12:18:24;;;;;;;3.78;3.47;;;15.20;85.40;;;;;;4944573;28;20233;-76
2021/03/06 12:20:51;;;;;;;3.33;3.08;;;15.00;86.60;;;;;;4957802;28;20232;-76
2021/03/06 12:23:18;;;;;;;3.22;2.92;;;14.90;87.20;;;;;;4958566;28;20224;-76
2021/03/06 12:25:44;;;;;;;2.75;2.55;;;14.70;87.50;;;;;;4954011;28;20224;-78
2021/03/06 12:28:11;;;;;;;3.58;2.95;;;14.60;88.30;;;;;;4962940;28;20225;-76
2021/03/06 12:30:39;;;;;;;3.33;2.80;;;14.60;87.00;;;;;;4966669;28;20264;-75
2021/03/06 12:33:06;;;;;;;3.20;2.70;;;14.70;84.90;;;;;;4959828;28;20292;-77
2021/03/06 12:35:32;;;;;;;3.47;2.90;;;14.70;84.70;;;;;;4956226;28;20237;-77
2021/03/06 12:37:59;;;;;;;2.53;2.30;;;14.60;86.20;;;;;;4956667;28;20226;-77
2021/03/06 12:40:26;;;;;;;4.57;2.47;;;14.60;85.80;;;;;;4956786;28;20246;-76
2021/03/06 12:42:52;;;;;;;3.20;2.90;;;14.40;84.90;;;;;;4955852;28;20244;-79
2021/03/06 12:45:19;;;;;;;2.55;2.35;;;14.40;84.50;;;;;;4965120;28;20229;-76
2021/03/06 12:47:47;;;;;;;2.80;2.60;;;14.40;84.90;;;;;;4963276;28;20935;-77
2021/03/06 12:50:15;;;;;;;3.15;2.92;;;14.40;84.10;;;;;;4964994;28;20233;-77
2021/03/06 12:52:41;;;;;;;3.20;3.00;;;14.20;85.40;;;;;;4963161;28;20260;-76
2021/03/06 12:55:09;;;;;;;3.05;2.85;;;14.10;85.50;;;;;;4965023;28;20244;-77
2021/03/06 12:57:36;;;;;;;3.13;2.88;;;14.10;86.30;;;;;;4963537;28;20221;-77
2021/03/06 13:00:04;;;;;;;3.33;3.03;;;14.20;85.90;;;;;;4964251;28;20700;-77
2021/03/06 13:02:31;;;;;;;3.10;2.80;;;14.20;86.20;;;;;;4959522;28;20237;-76
2021/03/06 13:04:58;;;;;;;3.40;3.10;;;14.10;86.70;;;;;;4958421;28;20221;-78
2021/03/06 13:07:25;;;;;;;3.67;3.33;;;14.20;86.70;;;;;;4954257;28;20221;-77